createdAt,value
2022-11-05T00:03:04.332Z,7.80
2022-11-05T00:07:07.257Z,7.90
2022-11-05T00:10:49.409Z,8.00
2022-11-05T00:14:51.659Z,8.10
2022-11-05T00:18:33.592Z,8.10
2022-11-05T00:22:34.306Z,8.20
2022-11-05T00:26:16.470Z,8.20
2022-11-05T00:29:58.369Z,8.30
2022-11-05T00:33:42.023Z,8.30
2022-11-05T00:37:24.071Z,8.40
2022-11-05T00:41:06.144Z,8.40
2022-11-05T00:45:03.052Z,8.40
2022-11-05T00:49:03.375Z,8.40
2022-11-05T00:52:59.466Z,8.30
2022-11-05T00:56:41.436Z,8.40
2022-11-05T01:00:25.213Z,8.40
2022-11-05T01:04:07.079Z,8.40
2022-11-05T01:07:48.983Z,8.30
2022-11-05T01:11:34.037Z,8.40
2022-11-05T01:15:16.910Z,8.40
2022-11-05T01:18:58.826Z,8.40
2022-11-05T01:22:40.740Z,8.30
2022-11-05T01:26:22.845Z,8.40
2022-11-05T01:30:07.254Z,8.40
2022-11-05T01:33:49.650Z,8.40
2022-11-05T01:37:31.732Z,8.40
2022-11-05T01:41:13.738Z,8.40
2022-11-05T01:44:55.947Z,8.40
2022-11-05T01:48:38.510Z,8.30
2022-11-05T01:52:21.448Z,8.30
2022-11-05T01:56:20.760Z,8.30
2022-11-05T02:00:03.804Z,8.30
2022-11-05T02:03:47.694Z,8.40
2022-11-05T02:07:32.600Z,8.40
2022-11-05T02:11:17.413Z,8.50
2022-11-05T02:14:59.385Z,8.50
2022-11-05T02:19:15.208Z,8.50
2022-11-05T02:23:36.591Z,8.40
2022-11-05T02:27:29.837Z,8.40
2022-11-05T02:31:30.189Z,8.50
2022-11-05T02:35:36.402Z,8.50
2022-11-05T02:39:30.166Z,8.50
2022-11-05T02:43:16.566Z,8.50
2022-11-05T02:47:22.850Z,8.50
2022-11-05T02:51:32.319Z,8.60
2022-11-05T02:55:24.690Z,8.60
2022-11-05T02:59:06.637Z,8.60
2022-11-05T03:02:48.709Z,8.60
2022-11-05T03:06:45.809Z,8.60
2022-11-05T03:10:41.753Z,8.60
2022-11-05T03:14:31.478Z,8.60
2022-11-05T03:18:16.282Z,8.60
2022-11-05T03:22:07.600Z,8.70
2022-11-05T03:25:56.003Z,8.70
2022-11-05T03:29:44.534Z,8.80
2022-11-05T03:33:29.629Z,8.80
2022-11-05T03:37:12.152Z,8.80
2022-11-05T03:40:56.973Z,8.80
2022-11-05T03:44:45.084Z,8.90
2022-11-05T03:48:29.962Z,8.90
2022-11-05T03:52:19.676Z,8.90
2022-11-05T03:56:06.908Z,9.00
2022-11-05T03:59:50.758Z,9.00
2022-11-05T04:03:36.519Z,9.00
2022-11-05T04:07:37.374Z,9.00
2022-11-05T04:11:37.721Z,9.00
2022-11-05T04:15:19.606Z,9.00
2022-11-05T04:19:01.495Z,9.00
2022-11-05T04:23:02.196Z,8.90
2022-11-05T04:26:44.662Z,8.90
2022-11-05T04:30:27.194Z,8.90
2022-11-05T04:34:09.082Z,8.80
2022-11-05T04:37:51.078Z,8.80
2022-11-05T04:41:33.074Z,8.80
2022-11-05T04:45:15.105Z,8.80
2022-11-05T04:48:57.042Z,8.80
2022-11-05T04:52:39.626Z,8.80
2022-11-05T04:56:23.734Z,8.80
2022-11-05T05:00:07.828Z,8.80
2022-11-05T05:03:54.215Z,8.80
2022-11-05T05:07:36.472Z,8.80
2022-11-05T05:11:20.682Z,8.80
2022-11-05T05:15:02.803Z,8.80
2022-11-05T05:18:46.426Z,8.80
2022-11-05T05:22:28.899Z,8.80
2022-11-05T05:26:11.016Z,8.90
2022-11-05T05:29:52.986Z,8.90
2022-11-05T05:33:35.246Z,8.80
2022-11-05T05:37:17.998Z,8.90
2022-11-05T05:41:00.364Z,8.90
2022-11-05T05:44:42.644Z,8.90
2022-11-05T05:48:25.039Z,8.90
2022-11-05T05:52:07.017Z,8.90
2022-11-05T05:55:48.921Z,8.90
2022-11-05T05:59:30.885Z,9.00
2022-11-05T06:03:13.170Z,9.00
2022-11-05T06:06:55.409Z,9.00
2022-11-05T06:10:40.322Z,9.00
2022-11-05T06:14:22.306Z,9.00
2022-11-05T06:18:04.312Z,9.10
2022-11-05T06:21:46.252Z,9.20
2022-11-05T06:25:28.658Z,9.20
2022-11-05T06:33:27.601Z,9.20
2022-11-05T06:37:09.558Z,9.30
2022-11-05T06:40:51.543Z,9.30
2022-11-05T06:44:33.537Z,9.30
2022-11-05T06:48:15.467Z,9.30
2022-11-05T06:51:58.688Z,9.30
2022-11-05T06:55:40.911Z,9.40
2022-11-05T06:59:22.839Z,9.40
2022-11-05T07:03:06.858Z,9.40
2022-11-05T07:06:48.800Z,9.40
2022-11-05T07:10:30.711Z,9.40
2022-11-05T07:14:12.639Z,9.40
2022-11-05T07:17:59.628Z,9.40
2022-11-05T07:21:41.543Z,9.50
2022-11-05T07:25:23.551Z,9.50
2022-11-05T07:55:33.649Z,9.90
2022-11-05T07:59:15.618Z,10.00
2022-11-05T08:03:13.938Z,10.00
2022-11-05T08:06:56.444Z,10.10
2022-11-05T08:11:06.809Z,10.20
2022-11-05T08:14:48.827Z,10.30
2022-11-05T08:18:58.734Z,10.30
2022-11-05T08:22:44.867Z,10.40
2022-11-05T08:26:52.796Z,10.50
2022-11-05T08:30:35.653Z,10.50
2022-11-05T08:34:51.418Z,10.60
2022-11-05T08:38:33.441Z,10.70
2022-11-05T08:43:00.940Z,10.80
2022-11-05T08:47:14.398Z,10.90
2022-11-05T08:50:56.346Z,11.00
2022-11-05T08:58:51.967Z,11.30
2022-11-05T09:02:55.438Z,11.30
2022-11-05T09:06:37.389Z,11.40
2022-11-05T09:10:44.438Z,11.40
2022-11-05T09:14:30.253Z,11.50
2022-11-05T09:22:42.159Z,11.50
2022-11-05T12:32:58.491Z,12.60
2022-11-05T14:08:16.490Z,12.80
2022-11-05T15:14:02.390Z,13.00
2022-11-05T16:38:24.938Z,13.40
2022-11-05T16:42:32.827Z,13.40
2022-11-05T16:46:15.839Z,13.50
2022-11-05T16:49:58.101Z,13.50
2022-11-05T16:53:40.201Z,13.50
2022-11-05T16:57:31.887Z,13.50
2022-11-05T17:01:17.292Z,13.50
2022-11-05T17:04:59.358Z,13.50
2022-11-05T17:08:41.918Z,13.50
2022-11-05T17:12:24.045Z,13.60
2022-11-05T17:16:08.736Z,13.60
2022-11-05T17:19:50.688Z,13.60
2022-11-05T17:23:34.380Z,13.60
2022-11-05T17:27:16.315Z,13.60
2022-11-05T17:31:03.503Z,13.70
2022-11-05T17:34:46.484Z,13.70
2022-11-05T17:38:29.844Z,13.70
2022-11-05T17:42:11.833Z,13.70
2022-11-05T17:45:55.193Z,13.70
2022-11-05T17:49:39.553Z,13.70
2022-11-05T17:53:21.594Z,13.70
2022-11-05T17:57:04.506Z,13.70
2022-11-05T18:00:47.143Z,13.70
2022-11-05T18:04:29.095Z,13.70
2022-11-05T18:08:12.739Z,13.70
2022-11-05T18:11:54.683Z,13.70
2022-11-05T18:15:41.052Z,13.70
2022-11-05T18:19:23.198Z,13.70
2022-11-05T18:23:05.237Z,13.70
2022-11-05T18:26:47.210Z,13.70
2022-11-05T18:30:29.199Z,13.70
2022-11-05T18:34:11.265Z,13.70
2022-11-05T18:37:53.255Z,13.70
2022-11-05T18:41:35.191Z,13.70
2022-11-05T18:45:17.524Z,13.70
2022-11-05T18:49:00.373Z,13.70
2022-11-05T18:52:42.412Z,13.70
2022-11-05T18:56:24.581Z,13.70
2022-11-05T19:00:07.055Z,13.70
2022-11-05T19:03:51.366Z,13.70
2022-11-05T19:07:37.058Z,13.70
2022-11-05T19:11:21.791Z,13.70
2022-11-05T19:15:04.225Z,13.70
2022-11-05T19:18:46.664Z,13.70
2022-11-05T19:22:29.018Z,13.70
2022-11-05T19:26:15.777Z,13.70
2022-11-05T19:29:57.798Z,13.70
2022-11-05T19:33:39.709Z,13.70
2022-11-05T19:37:21.656Z,13.70
2022-11-05T19:41:14.356Z,13.70
2022-11-05T19:44:56.993Z,13.70
2022-11-05T19:48:42.994Z,13.60
2022-11-05T19:52:25.428Z,13.50
2022-11-05T19:56:20.100Z,13.50
2022-11-05T20:00:02.139Z,13.40
2022-11-05T20:03:44.560Z,13.40
2022-11-05T20:07:27.528Z,13.40
2022-11-05T20:11:09.443Z,13.40
2022-11-05T20:14:51.452Z,13.40
2022-11-05T20:18:33.372Z,13.40
2022-11-05T20:22:15.466Z,13.40
2022-11-05T20:25:58.742Z,13.40
2022-11-05T20:29:40.939Z,13.40
2022-11-05T20:33:23.725Z,13.40
2022-11-05T20:37:05.797Z,13.40
2022-11-05T20:40:48.090Z,13.30
2022-11-05T20:44:30.126Z,13.20
2022-11-05T20:48:12.523Z,13.10
2022-11-05T20:51:55.204Z,13.00
2022-11-05T20:55:44.821Z,13.00
2022-11-05T20:59:27.019Z,12.90
2022-11-05T21:03:09.024Z,12.80
2022-11-05T21:06:50.967Z,12.80
2022-11-05T21:10:32.878Z,12.70
2022-11-05T21:14:15.022Z,12.60
2022-11-05T21:17:57.009Z,12.50
2022-11-05T21:21:41.218Z,12.50
2022-11-05T21:25:23.402Z,12.60
2022-11-05T21:29:05.454Z,12.50
2022-11-05T21:32:47.371Z,12.50
2022-11-05T21:36:29.631Z,12.50
2022-11-05T21:40:11.993Z,12.50
2022-11-05T21:43:53.972Z,12.50
2022-11-05T21:47:35.897Z,12.60
2022-11-05T21:51:36.271Z,12.60
2022-11-05T21:55:41.182Z,12.60
2022-11-05T21:59:43.843Z,12.70
2022-11-05T22:03:25.831Z,12.70
2022-11-05T22:07:10.072Z,12.70
2022-11-05T22:10:52.038Z,12.70
2022-11-05T22:14:34.448Z,12.70
2022-11-05T22:18:16.447Z,12.70
2022-11-05T22:21:58.416Z,12.70
2022-11-05T22:25:40.342Z,12.60
2022-11-05T22:29:22.348Z,12.60
2022-11-05T22:33:04.353Z,12.50
2022-11-05T22:36:46.382Z,12.40
2022-11-05T22:40:28.297Z,12.40
2022-11-05T22:44:10.815Z,12.30
2022-11-05T22:47:52.702Z,12.20
2022-11-05T22:51:36.391Z,12.10
2022-11-05T22:55:18.498Z,12.00
2022-11-05T22:59:00.449Z,12.00
2022-11-05T23:02:42.429Z,11.90
2022-11-05T23:06:46.173Z,11.80
2022-11-05T23:10:46.557Z,11.90
2022-11-05T23:14:28.821Z,11.80
2022-11-05T23:18:29.016Z,11.90
2022-11-05T23:22:38.421Z,11.80
2022-11-05T23:26:39.166Z,11.80
2022-11-05T23:30:23.358Z,11.80
2022-11-05T23:34:05.300Z,11.70
2022-11-05T23:38:05.495Z,11.70
2022-11-05T23:42:06.200Z,11.70
2022-11-05T23:45:48.104Z,11.60
2022-11-05T23:49:29.993Z,11.50
2022-11-05T23:53:12.028Z,11.50
2022-11-05T23:56:53.956Z,11.30
